createdAt,value
2019-01-16T00:00:43.820Z,4.20
2019-01-16T00:03:48.745Z,4.20
2019-01-16T00:06:38.315Z,4.20
2019-01-16T00:09:35.832Z,4.20
2019-01-16T00:12:18.613Z,4.20
2019-01-16T00:15:09.318Z,4.20
2019-01-16T00:18:04.810Z,4.30
2019-01-16T00:20:56.602Z,4.30
2019-01-16T00:23:46.216Z,4.30
2019-01-16T00:26:41.372Z,4.30
2019-01-16T00:29:37.463Z,4.30
2019-01-16T00:32:25.980Z,4.30
2019-01-16T00:35:18.978Z,4.30
2019-01-16T00:37:59.718Z,4.30
2019-01-16T00:40:52.548Z,4.30
2019-01-16T00:43:53.679Z,4.30
2019-01-16T00:46:41.293Z,4.30
2019-01-16T00:49:44.170Z,4.30
2019-01-16T00:52:52.434Z,4.30
2019-01-16T00:55:42.397Z,4.30
2019-01-16T00:58:37.608Z,4.30
2019-01-16T01:01:29.700Z,4.40
2019-01-16T01:04:24.689Z,4.40
2019-01-16T01:07:18.173Z,4.30
2019-01-16T01:10:05.892Z,4.40
2019-01-16T01:12:57.743Z,4.30
2019-01-16T01:15:56.428Z,4.30
2019-01-16T01:18:46.386Z,4.40
2019-01-16T01:21:48.953Z,4.40
2019-01-16T01:24:36.798Z,4.40
2019-01-16T01:27:30.298Z,4.40
2019-01-16T01:30:25.195Z,4.40
2019-01-16T01:33:10.687Z,4.40
2019-01-16T01:35:59.756Z,4.40
2019-01-16T01:38:49.180Z,4.40
2019-01-16T01:41:48.678Z,4.50
2019-01-16T01:44:37.766Z,4.40
2019-01-16T01:47:15.954Z,4.50
2019-01-16T01:50:00.739Z,4.50
2019-01-16T01:53:05.012Z,4.50
2019-01-16T01:55:54.207Z,4.50
2019-01-16T01:58:36.668Z,4.50
2019-01-16T02:01:24.934Z,4.50
2019-01-16T02:04:33.203Z,4.60
2019-01-16T02:07:31.950Z,4.60
2019-01-16T02:10:21.367Z,4.60
2019-01-16T02:13:03.644Z,4.60
2019-01-16T02:15:50.990Z,4.70
2019-01-16T02:18:47.400Z,4.70
2019-01-16T02:21:31.076Z,4.70
2019-01-16T02:24:24.910Z,4.70
2019-01-16T02:27:19.923Z,4.70
2019-01-16T02:30:07.521Z,4.70
2019-01-16T02:33:05.643Z,4.80
2019-01-16T02:36:00.821Z,4.80
2019-01-16T02:38:57.448Z,4.80
2019-01-16T02:41:37.652Z,4.80
2019-01-16T02:44:35.682Z,4.80
2019-01-16T02:47:33.756Z,4.80
2019-01-16T02:50:16.338Z,4.80
2019-01-16T02:53:04.325Z,4.80
2019-01-16T02:56:02.634Z,4.80
2019-01-16T02:58:44.617Z,4.80
2019-01-16T03:01:23.344Z,4.80
2019-01-16T03:04:03.564Z,4.80
2019-01-16T03:07:01.557Z,4.90
2019-01-16T03:09:54.412Z,4.90
2019-01-16T03:12:42.500Z,4.80
2019-01-16T03:15:28.464Z,4.90
2019-01-16T03:18:29.547Z,4.90
2019-01-16T03:21:30.609Z,4.90
2019-01-16T03:24:25.507Z,4.90
2019-01-16T03:27:05.251Z,4.90
2019-01-16T03:29:52.287Z,4.90
2019-01-16T03:32:44.128Z,4.90
2019-01-16T03:35:33.264Z,4.90
2019-01-16T03:38:34.274Z,4.90
2019-01-16T03:41:13.430Z,4.80
2019-01-16T03:44:05.046Z,4.80
2019-01-16T03:46:54.210Z,4.80
2019-01-16T03:49:41.040Z,4.70
2019-01-16T03:52:28.429Z,4.70
2019-01-16T03:55:17.650Z,4.70
2019-01-16T03:57:58.780Z,4.70
2019-01-16T04:01:03.253Z,4.60
2019-01-16T04:03:51.335Z,4.60
2019-01-16T04:06:50.134Z,4.60
2019-01-16T04:09:37.864Z,4.60
2019-01-16T04:12:26.843Z,4.70
2019-01-16T04:15:19.250Z,4.70
2019-01-16T04:18:07.396Z,4.70
2019-01-16T04:21:08.972Z,4.70
2019-01-16T04:23:53.460Z,4.70
2019-01-16T04:26:55.166Z,4.70
2019-01-16T04:29:37.364Z,4.70
2019-01-16T04:32:17.872Z,4.70
2019-01-16T04:35:05.716Z,4.70
2019-01-16T04:38:03.879Z,4.70
2019-01-16T04:40:47.762Z,4.70
2019-01-16T04:43:35.913Z,4.70
2019-01-16T04:46:33.753Z,4.70
2019-01-16T04:49:30.185Z,4.70
2019-01-16T04:52:22.921Z,4.70
2019-01-16T04:55:08.315Z,4.70
2019-01-16T04:57:56.512Z,4.70
2019-01-16T05:00:56.012Z,4.70
2019-01-16T05:03:58.104Z,4.70
2019-01-16T05:06:47.135Z,4.70
2019-01-16T05:09:45.236Z,4.60
2019-01-16T05:12:40.198Z,4.70
2019-01-16T05:15:38.478Z,4.60
2019-01-16T05:18:21.287Z,4.70
2019-01-16T05:21:09.328Z,4.60
2019-01-16T05:23:56.946Z,4.60
2019-01-16T05:26:55.366Z,4.60
2019-01-16T05:29:56.853Z,4.70
2019-01-16T05:33:03.975Z,4.60
2019-01-16T05:36:05.407Z,4.60
2019-01-16T05:39:06.601Z,4.60
2019-01-16T05:41:55.983Z,4.60
2019-01-16T05:44:44.135Z,4.70
2019-01-16T05:47:28.133Z,4.70
2019-01-16T05:50:09.750Z,4.60
2019-01-16T05:53:01.914Z,4.60
2019-01-16T05:56:00.701Z,4.60
2019-01-16T05:58:52.777Z,4.60
2019-01-16T06:01:48.099Z,4.60
2019-01-16T06:04:36.319Z,4.60
2019-01-16T06:07:24.189Z,4.60
2019-01-16T06:10:14.473Z,4.60
2019-01-16T06:13:02.250Z,4.60
2019-01-16T06:15:50.244Z,4.60
2019-01-16T06:18:29.859Z,4.60
2019-01-16T06:21:27.977Z,4.60
2019-01-16T06:24:15.577Z,4.60
2019-01-16T06:27:03.322Z,4.70
2019-01-16T06:29:40.925Z,4.70
2019-01-16T06:32:49.302Z,4.70
2019-01-16T06:35:38.365Z,4.70
2019-01-16T06:38:27.457Z,4.70
2019-01-16T06:41:22.353Z,4.70
2019-01-16T06:44:10.387Z,4.70
2019-01-16T06:46:54.390Z,4.70
2019-01-16T06:49:36.793Z,4.70
2019-01-16T06:52:13.387Z,4.70
2019-01-16T06:55:02.673Z,4.70
2019-01-16T06:57:54.465Z,4.70
2019-01-16T07:00:43.516Z,4.70
2019-01-16T07:03:44.731Z,4.70
2019-01-16T07:06:39.735Z,4.70
2019-01-16T07:09:28.376Z,4.70
2019-01-16T07:12:23.381Z,4.70
2019-01-16T07:15:15.477Z,4.70
2019-01-16T07:18:04.309Z,4.70
2019-01-16T07:20:51.861Z,4.80
2019-01-16T07:23:31.041Z,4.70
2019-01-16T07:26:29.441Z,4.80
2019-01-16T07:29:17.272Z,4.70
2019-01-16T07:32:15.354Z,4.80
2019-01-16T07:34:57.759Z,4.80
2019-01-16T07:37:55.779Z,4.70
2019-01-16T07:40:48.617Z,4.80
2019-01-16T07:43:36.484Z,4.80
2019-01-16T07:46:17.646Z,4.80
2019-01-16T07:49:22.086Z,4.80
2019-01-16T07:52:24.225Z,4.80
2019-01-16T07:55:11.841Z,4.80
2019-01-16T07:57:59.846Z,4.80
2019-01-16T08:00:47.867Z,4.80
2019-01-16T08:03:28.895Z,4.80
2019-01-16T08:06:17.968Z,4.80
2019-01-16T08:09:02.847Z,4.80
2019-01-16T08:12:04.984Z,4.80
2019-01-16T08:14:50.164Z,4.90
2019-01-16T08:17:37.851Z,4.90
2019-01-16T08:20:29.599Z,4.90
2019-01-16T08:23:25.709Z,4.90
2019-01-16T08:26:13.680Z,4.90
2019-01-16T08:29:05.994Z,5.00
2019-01-16T08:31:54.717Z,5.00
2019-01-16T08:34:52.533Z,5.00
2019-01-16T08:37:47.646Z,5.00
2019-01-16T08:40:54.947Z,5.10
2019-01-16T08:43:33.787Z,5.10
2019-01-16T08:46:29.216Z,5.20
2019-01-16T08:49:30.744Z,5.20
2019-01-16T08:52:18.636Z,5.20
2019-01-16T08:55:07.666Z,5.30
2019-01-16T08:57:56.735Z,5.30
2019-01-16T09:00:55.096Z,5.40
2019-01-16T09:03:44.224Z,5.30
2019-01-16T09:06:45.661Z,5.30
2019-01-16T09:09:36.371Z,5.30
2019-01-16T09:12:23.223Z,5.40
2019-01-16T09:15:11.310Z,5.40
2019-01-16T09:18:03.645Z,5.40
2019-01-16T09:20:52.845Z,5.50
2019-01-16T09:23:40.541Z,5.50
2019-01-16T09:26:47.902Z,5.60
2019-01-16T09:29:35.397Z,5.60
2019-01-16T09:32:23.482Z,5.60
2019-01-16T09:35:12.504Z,5.70
2019-01-16T09:38:07.609Z,5.70
2019-01-16T09:41:05.861Z,5.70
2019-01-16T09:43:57.975Z,5.70
2019-01-16T09:46:52.921Z,5.80
2019-01-16T09:49:48.121Z,5.80
2019-01-16T09:52:37.217Z,5.80
2019-01-16T09:55:25.189Z,5.80
2019-01-16T09:58:13.126Z,5.80
2019-01-16T10:01:01.301Z,5.80
2019-01-16T10:03:53.292Z,5.80
2019-01-16T10:06:38.404Z,5.80
2019-01-16T10:09:27.071Z,5.90
2019-01-16T10:12:08.552Z,5.90
2019-01-16T10:14:57.650Z,6.00
2019-01-16T10:17:45.425Z,6.00
2019-01-16T10:20:46.215Z,6.00
2019-01-16T10:23:24.243Z,6.00
2019-01-16T10:26:07.244Z,6.10
2019-01-16T10:28:59.323Z,6.10
2019-01-16T10:31:47.139Z,6.20
2019-01-16T10:34:51.343Z,6.30
2019-01-16T10:37:40.444Z,6.20
2019-01-16T10:40:24.277Z,6.30
2019-01-16T10:43:12.088Z,6.20
2019-01-16T10:46:06.964Z,6.30
2019-01-16T10:48:56.052Z,6.30
2019-01-16T10:51:51.941Z,6.40
2019-01-16T10:54:34.467Z,6.30
2019-01-16T10:57:22.414Z,6.20
2019-01-16T11:00:29.987Z,6.20
2019-01-16T11:03:19.107Z,6.30
2019-01-16T11:06:00.549Z,6.40
2019-01-16T11:09:01.419Z,6.30
2019-01-16T11:11:51.560Z,6.40
2019-01-16T11:14:49.910Z,6.50
2019-01-16T11:17:37.978Z,6.50
2019-01-16T11:20:27.273Z,6.50
2019-01-16T11:23:28.775Z,6.40
2019-01-16T11:26:22.151Z,6.40
2019-01-16T11:29:09.987Z,6.40
2019-01-16T11:32:04.877Z,6.40
2019-01-16T11:34:52.640Z,6.40
2019-01-16T11:37:40.624Z,6.40
2019-01-16T11:40:28.996Z,6.40
2019-01-16T11:43:19.762Z,6.40
2019-01-16T11:46:07.607Z,6.40
2019-01-16T11:48:56.601Z,6.50
2019-01-16T11:51:54.915Z,6.40
2019-01-16T11:54:49.807Z,6.40
2019-01-16T11:57:54.242Z,6.40
2019-01-16T12:00:43.330Z,6.40
2019-01-16T12:03:31.114Z,6.50
2019-01-16T12:06:23.180Z,6.50
2019-01-16T12:09:18.229Z,6.40
2019-01-16T12:12:06.221Z,6.50
2019-01-16T12:14:54.374Z,6.50
2019-01-16T12:17:55.522Z,6.50
2019-01-16T12:20:38.664Z,6.40
2019-01-16T12:23:18.851Z,6.40
2019-01-16T12:26:16.882Z,6.30
2019-01-16T12:29:00.528Z,6.30
2019-01-16T12:31:55.679Z,6.20
2019-01-16T12:34:47.062Z,6.20
2019-01-16T12:37:36.166Z,6.20
2019-01-16T12:40:35.491Z,6.20
2019-01-16T12:43:23.419Z,6.20
2019-01-16T12:46:21.350Z,6.20
2019-01-16T12:49:16.287Z,6.10
2019-01-16T12:52:08.283Z,6.20
2019-01-16T12:54:56.338Z,6.10
2019-01-16T12:57:45.390Z,6.10
2019-01-16T13:00:49.684Z,6.10
2019-01-16T13:03:38.768Z,6.10
2019-01-16T13:09:02.315Z,6.20
2019-01-16T13:12:08.703Z,6.10
2019-01-16T13:15:06.994Z,6.10
2019-01-16T13:17:56.130Z,6.10
2019-01-16T13:20:44.642Z,6.10
2019-01-16T13:23:32.690Z,6.10
2019-01-16T13:26:21.724Z,6.10
2019-01-16T13:29:10.841Z,6.10
2019-01-16T13:31:50.165Z,6.10
2019-01-16T13:34:57.464Z,6.10
2019-01-16T13:37:45.002Z,6.10
2019-01-16T13:40:32.934Z,6.10
2019-01-16T13:43:24.943Z,6.10
2019-01-16T13:46:15.199Z,6.10
2019-01-16T13:49:01.096Z,6.00
2019-01-16T13:51:56.050Z,6.00
2019-01-16T13:54:44.077Z,6.00
2019-01-16T13:57:28.662Z,6.00
2019-01-16T14:00:13.694Z,6.00
2019-01-16T14:03:02.774Z,5.90
2019-01-16T14:05:57.852Z,6.00
2019-01-16T14:09:05.042Z,5.90
2019-01-16T14:11:53.020Z,5.90
2019-01-16T14:14:40.891Z,5.90
2019-01-16T14:17:35.906Z,5.90
2019-01-16T14:20:27.649Z,5.90
2019-01-16T14:23:25.864Z,5.90
2019-01-16T14:26:13.463Z,5.80
2019-01-16T14:28:49.305Z,5.80
2019-01-16T14:31:33.194Z,5.80
2019-01-16T14:34:20.984Z,5.80
2019-01-16T14:37:10.005Z,5.80
2019-01-16T14:39:58.058Z,5.80
2019-01-16T14:42:53.141Z,5.80
2019-01-16T14:45:45.131Z,5.80
2019-01-16T14:48:31.854Z,5.80
2019-01-16T14:51:19.847Z,5.70
2019-01-16T14:54:17.896Z,5.70
2019-01-16T14:57:16.047Z,5.70
2019-01-16T15:00:03.703Z,5.60
2019-01-16T15:03:02.029Z,5.60
2019-01-16T15:05:46.320Z,5.60
2019-01-16T15:08:35.351Z,5.50
2019-01-16T15:11:32.523Z,5.50
2019-01-16T15:14:24.499Z,5.50
2019-01-16T15:17:16.368Z,5.50
2019-01-16T15:20:04.769Z,5.50
2019-01-16T15:22:46.027Z,5.40
2019-01-16T15:25:33.906Z,5.40
2019-01-16T15:28:21.774Z,5.40
2019-01-16T15:31:05.619Z,5.40
2019-01-16T15:33:48.076Z,5.30
2019-01-16T15:36:36.171Z,5.20
2019-01-16T15:39:28.224Z,5.20
2019-01-16T15:42:16.488Z,5.10
2019-01-16T15:44:53.430Z,5.10
2019-01-16T15:48:01.994Z,5.00
2019-01-16T15:51:03.240Z,5.00
2019-01-16T15:53:50.012Z,4.90
2019-01-16T15:56:41.472Z,4.80
2019-01-16T15:59:19.956Z,4.80
2019-01-16T16:02:14.804Z,4.80
2019-01-16T16:05:07.002Z,4.80
2019-01-16T16:08:04.314Z,4.70
2019-01-16T16:11:05.414Z,4.70
2019-01-16T16:14:02.484Z,4.70
2019-01-16T16:16:49.903Z,4.60
2019-01-16T16:19:37.900Z,4.60
2019-01-16T16:22:28.822Z,4.60
2019-01-16T16:25:13.728Z,4.50
2019-01-16T16:27:57.436Z,4.50
2019-01-16T16:30:38.835Z,4.40
2019-01-16T16:33:43.254Z,4.30
2019-01-16T16:36:35.121Z,4.20
2019-01-16T16:39:16.487Z,4.10
2019-01-16T16:42:04.497Z,3.90
2019-01-16T16:45:00.519Z,4.00
2019-01-16T16:47:49.987Z,3.90
2019-01-16T16:50:32.767Z,3.80
2019-01-16T16:53:22.236Z,3.70
2019-01-16T16:56:11.730Z,3.70
2019-01-16T16:59:13.380Z,3.60
2019-01-16T17:01:53.668Z,3.60
2019-01-16T17:04:34.205Z,3.50
2019-01-16T17:07:23.286Z,3.50
2019-01-16T17:10:13.499Z,3.50
2019-01-16T17:13:01.738Z,3.40
2019-01-16T17:15:50.801Z,3.40
2019-01-16T17:18:40.040Z,3.40
2019-01-16T17:21:27.692Z,3.30
2019-01-16T17:24:11.022Z,3.40
2019-01-16T17:26:58.736Z,3.40
2019-01-16T17:29:51.049Z,3.40
2019-01-16T17:32:58.297Z,3.30
2019-01-16T17:35:50.166Z,3.20
2019-01-16T17:38:39.239Z,3.20
2019-01-16T17:41:27.441Z,3.10
2019-01-16T17:44:16.596Z,3.10
2019-01-16T17:47:02.234Z,3.20
2019-01-16T17:49:54.145Z,3.10
2019-01-16T17:52:55.348Z,3.00
2019-01-16T17:56:02.849Z,3.00
2019-01-16T17:58:44.639Z,2.90
2019-01-16T18:01:36.718Z,2.90
2019-01-16T18:04:24.440Z,2.70
2019-01-16T18:07:07.993Z,2.60
2019-01-16T18:09:55.697Z,2.50
2019-01-16T18:12:59.926Z,2.40
2019-01-16T18:15:58.008Z,2.30
2019-01-16T18:18:55.494Z,2.50
2019-01-16T18:21:44.608Z,2.50
2019-01-16T18:24:49.125Z,2.30
2019-01-16T18:27:43.016Z,2.00
2019-01-16T18:30:39.651Z,2.00
2019-01-16T18:33:27.658Z,2.00
2019-01-16T18:36:17.806Z,1.80
2019-01-16T18:39:06.931Z,1.60
2019-01-16T18:42:01.837Z,1.70
2019-01-16T18:44:42.069Z,1.60
2019-01-16T18:47:32.060Z,1.70
2019-01-16T18:50:19.815Z,1.80
2019-01-16T18:52:58.045Z,2.00
2019-01-16T18:55:59.456Z,1.90
2019-01-16T18:58:41.051Z,1.80
2019-01-16T19:01:22.600Z,1.90
2019-01-16T19:04:17.954Z,1.90
2019-01-16T19:07:04.507Z,1.90
2019-01-16T19:09:56.608Z,1.80
2019-01-16T19:12:44.685Z,1.90
2019-01-16T19:15:45.830Z,1.80
2019-01-16T19:18:53.580Z,1.80
2019-01-16T19:21:42.655Z,1.80
2019-01-16T19:24:19.224Z,1.90
2019-01-16T19:27:14.744Z,2.00
2019-01-16T19:30:13.147Z,1.90
2019-01-16T19:33:00.856Z,1.80
2019-01-16T19:35:48.937Z,1.70
2019-01-16T19:38:38.476Z,1.60
2019-01-16T19:41:27.657Z,1.50
2019-01-16T19:44:15.597Z,1.40
2019-01-16T19:47:07.509Z,1.40
2019-01-16T19:50:03.879Z,1.50
2019-01-16T19:53:04.803Z,1.60
2019-01-16T19:55:58.849Z,1.50
2019-01-16T19:58:47.928Z,1.60
2019-01-16T20:01:45.993Z,1.60
2019-01-16T20:04:33.737Z,1.70
2019-01-16T20:07:22.950Z,1.80
2019-01-16T20:10:18.165Z,1.80
2019-01-16T20:13:13.274Z,1.70
2019-01-16T20:16:11.431Z,1.80
2019-01-16T20:18:58.043Z,1.80
2019-01-16T20:21:38.708Z,1.80
2019-01-16T20:24:34.197Z,1.90
2019-01-16T20:27:38.347Z,2.00
2019-01-16T20:30:47.509Z,2.00
2019-01-16T20:33:48.676Z,2.00
2019-01-16T20:36:37.932Z,2.00
2019-01-16T20:39:36.505Z,2.10
2019-01-16T20:42:25.597Z,2.10
2019-01-16T20:45:05.881Z,2.20
2019-01-16T20:47:58.143Z,2.20
2019-01-16T20:50:59.544Z,2.10
2019-01-16T20:53:57.738Z,2.20
2019-01-16T20:56:47.191Z,2.20
2019-01-16T20:59:36.431Z,2.20
2019-01-16T21:02:31.713Z,2.20
2019-01-16T21:05:20.899Z,2.10
2019-01-16T21:08:03.782Z,2.10
2019-01-16T21:10:51.863Z,2.10
2019-01-16T21:13:33.487Z,2.00
2019-01-16T21:16:25.588Z,2.00
2019-01-16T21:19:13.552Z,2.00
2019-01-16T21:22:02.669Z,2.00
2019-01-16T21:24:47.383Z,1.90
2019-01-16T21:27:54.580Z,1.90
2019-01-16T21:30:50.771Z,1.90
2019-01-16T21:33:39.966Z,1.90
2019-01-16T21:36:27.031Z,1.90
2019-01-16T21:39:28.034Z,1.90
2019-01-16T21:42:16.869Z,2.00
2019-01-16T21:45:05.041Z,2.00
2019-01-16T21:48:12.405Z,2.00
2019-01-16T21:51:02.244Z,1.90
2019-01-16T21:54:00.252Z,1.90
2019-01-16T21:56:47.962Z,1.90
2019-01-16T21:59:41.453Z,1.90
2019-01-16T22:02:39.683Z,1.90
2019-01-16T22:05:34.895Z,1.90
2019-01-16T22:08:22.764Z,1.90
2019-01-16T22:11:20.502Z,1.90
2019-01-16T22:14:21.549Z,1.90
2019-01-16T22:17:22.821Z,1.80
2019-01-16T22:20:20.948Z,1.90
2019-01-16T22:23:12.217Z,1.90
2019-01-16T22:25:56.747Z,1.90
2019-01-16T22:28:39.833Z,1.90
2019-01-16T22:31:27.857Z,1.90
2019-01-16T22:34:29.323Z,2.00
2019-01-16T22:37:24.233Z,2.00
2019-01-16T22:40:18.804Z,2.00
2019-01-16T22:43:06.437Z,1.90
2019-01-16T22:45:55.545Z,1.90
2019-01-16T22:48:45.635Z,1.90
2019-01-16T22:51:33.618Z,1.90
2019-01-16T22:54:34.804Z,1.90
2019-01-16T22:57:35.810Z,1.90
2019-01-16T23:00:43.748Z,1.90
2019-01-16T23:03:31.679Z,1.90
2019-01-16T23:06:27.794Z,1.90
2019-01-16T23:09:22.222Z,1.90
2019-01-16T23:12:09.925Z,2.00
2019-01-16T23:14:57.736Z,2.00
2019-01-16T23:17:52.724Z,1.90
2019-01-16T23:20:54.145Z,1.90
2019-01-16T23:23:41.958Z,1.90
2019-01-16T23:26:39.867Z,1.90
2019-01-16T23:29:21.209Z,1.80
2019-01-16T23:32:13.333Z,1.80
2019-01-16T23:35:01.393Z,1.80
2019-01-16T23:37:56.483Z,1.70
2019-01-16T23:40:45.519Z,1.70
2019-01-16T23:43:43.432Z,1.60
2019-01-16T23:46:44.800Z,1.60
2019-01-16T23:49:37.664Z,1.60
2019-01-16T23:52:29.526Z,1.50
2019-01-16T23:55:29.675Z,1.50
2019-01-16T23:58:33.948Z,1.50
